createdAt,value
2023-03-29T03:02:07.961Z,100680.45
2023-03-29T03:04:36.695Z,100684.40
2023-03-29T03:07:06.608Z,100684.02
2023-03-29T03:09:36.457Z,100685.81
2023-03-29T03:12:05.628Z,100688.09
2023-03-29T03:14:34.933Z,100691.45
2023-03-29T03:17:04.934Z,100689.40
2023-03-29T03:19:34.869Z,100691.42
2023-03-29T03:22:08.359Z,100691.98
2023-03-29T03:24:40.054Z,100692.64
2023-03-29T03:27:09.436Z,100694.42
2023-03-29T03:29:39.214Z,100692.38
2023-03-29T03:32:21.238Z,100693.26
2023-03-29T03:34:57.412Z,100693.20
2023-03-29T03:37:29.222Z,100696.81
2023-03-29T03:39:58.905Z,100696.63
2023-03-29T03:42:29.967Z,100697.70
2023-03-29T03:45:00.521Z,100698.38
2023-03-29T03:47:48.637Z,100703.92
2023-03-29T03:50:26.283Z,100706.13
2023-03-29T03:52:55.193Z,100709.89
2023-03-29T03:55:24.304Z,100707.33
2023-03-29T03:58:05.273Z,100704.33
2023-03-29T04:00:34.765Z,100703.52
2023-03-29T04:03:15.970Z,100707.17
2023-03-29T04:05:46.646Z,100703.14
2023-03-29T04:08:16.552Z,100707.90
2023-03-29T04:11:04.848Z,100709.12
2023-03-29T04:13:39.046Z,100709.40
2023-03-29T04:16:32.815Z,100709.52
2023-03-29T04:19:14.320Z,100706.58
2023-03-29T04:21:46.996Z,100708.20
2023-03-29T04:24:17.820Z,100712.14
2023-03-29T04:26:54.528Z,100711.59
2023-03-29T04:29:26.536Z,100714.25
2023-03-29T04:32:03.689Z,100713.92
2023-03-29T04:34:51.718Z,100719.39
2023-03-29T04:37:22.606Z,100716.97
2023-03-29T04:39:52.964Z,100716.04
2023-03-29T04:42:22.227Z,100714.42
2023-03-29T04:44:51.492Z,100715.48
2023-03-29T04:47:24.073Z,100714.98
2023-03-29T04:49:58.598Z,100714.80
2023-03-29T04:52:36.846Z,100711.88
2023-03-29T04:55:07.657Z,100711.11
2023-03-29T04:58:11.096Z,100708.98
2023-03-29T05:00:43.700Z,100706.09
2023-03-29T05:03:24.750Z,100703.99
2023-03-29T05:06:10.731Z,100707.34
2023-03-29T05:08:41.490Z,100708.30
2023-03-29T05:11:26.106Z,100708.30
2023-03-29T05:13:57.538Z,100709.00
2023-03-29T05:16:31.125Z,100709.88
2023-03-29T05:19:00.667Z,100707.83
2023-03-29T05:21:34.100Z,100707.56
2023-03-29T05:24:04.944Z,100706.91
2023-03-29T05:26:59.010Z,100709.23
2023-03-29T05:29:29.672Z,100714.01
2023-03-29T05:32:12.251Z,100711.91
2023-03-29T05:34:41.821Z,100710.42
2023-03-29T05:37:10.871Z,100712.80
2023-03-29T05:39:51.896Z,100714.27
2023-03-29T05:42:23.284Z,100714.59
2023-03-29T05:44:59.333Z,100716.32
2023-03-29T05:47:28.983Z,100716.58
2023-03-29T05:49:58.144Z,100712.61
2023-03-29T05:52:28.156Z,100710.25
2023-03-29T05:54:57.049Z,100708.83
2023-03-29T05:57:26.198Z,100704.03
2023-03-29T05:59:55.688Z,100705.42
2023-03-29T06:02:26.127Z,100706.53
2023-03-29T06:04:55.619Z,100708.45
2023-03-29T06:07:25.292Z,100705.30
2023-03-29T06:10:12.932Z,100705.00
2023-03-29T06:12:45.800Z,100702.46
2023-03-29T06:15:15.938Z,100702.38
2023-03-29T06:17:54.877Z,100702.31
2023-03-29T06:20:23.799Z,100704.94
2023-03-29T06:22:58.496Z,100701.44
2023-03-29T06:25:30.013Z,100702.46
2023-03-29T06:27:59.762Z,100701.71
2023-03-29T06:30:29.604Z,100696.59
2023-03-29T06:33:00.036Z,100699.21
2023-03-29T06:35:47.222Z,100697.54
2023-03-29T06:38:21.697Z,100699.45
2023-03-29T06:41:05.670Z,100704.67
2023-03-29T06:43:51.395Z,100709.73
2023-03-29T06:46:24.439Z,100708.29
2023-03-29T06:48:58.614Z,100707.68
2023-03-29T06:51:36.294Z,100705.82
2023-03-29T06:54:05.657Z,100706.52
2023-03-29T06:56:35.420Z,100709.44
2023-03-29T06:59:08.794Z,100715.54
2023-03-29T07:01:49.185Z,100713.17
2023-03-29T07:04:27.907Z,100714.04
2023-03-29T07:07:20.726Z,100709.48
2023-03-29T07:09:57.107Z,100710.91
2023-03-29T07:12:31.984Z,100709.02
2023-03-29T07:15:02.596Z,100708.98
2023-03-29T07:17:51.784Z,100707.77
2023-03-29T07:20:24.114Z,100709.01
2023-03-29T07:23:04.574Z,100705.98
2023-03-29T07:25:34.592Z,100705.40
2023-03-29T07:28:04.142Z,100709.02
2023-03-29T07:30:33.720Z,100704.98
2023-03-29T07:33:22.420Z,100702.27
2023-03-29T07:35:55.788Z,100700.39
2023-03-29T07:38:55.903Z,100699.10
2023-03-29T07:41:26.972Z,100695.95
2023-03-29T07:44:18.806Z,100692.16
2023-03-29T07:46:48.100Z,100694.24
2023-03-29T07:49:17.303Z,100690.27
2023-03-29T07:51:46.117Z,100688.92
2023-03-29T07:54:15.475Z,100690.98
2023-03-29T07:56:49.872Z,100693.31
2023-03-29T07:59:25.397Z,100697.23
2023-03-29T08:02:02.655Z,100693.88
2023-03-29T08:04:36.657Z,100693.20
2023-03-29T08:07:32.849Z,100694.35
2023-03-29T08:10:28.184Z,100699.95
2023-03-29T08:13:20.993Z,100699.91
2023-03-29T08:16:09.436Z,100697.17
2023-03-29T08:18:42.763Z,100691.70
2023-03-29T08:21:11.559Z,100690.02
2023-03-29T08:23:41.325Z,100692.14
2023-03-29T08:26:23.906Z,100688.38
2023-03-29T08:28:52.662Z,100687.48
2023-03-29T08:31:22.135Z,100687.82
2023-03-29T08:33:50.364Z,100681.44
2023-03-29T08:36:37.475Z,100677.95
2023-03-29T08:39:11.697Z,100677.38
2023-03-29T08:41:50.423Z,100674.10
2023-03-29T08:44:37.317Z,100671.13
2023-03-29T08:47:34.790Z,100669.11
2023-03-29T08:50:16.897Z,100670.93
2023-03-29T08:52:55.939Z,100672.40
2023-03-29T08:55:50.103Z,100667.01
2023-03-29T08:58:38.764Z,100662.95
2023-03-29T09:01:10.016Z,100661.85
2023-03-29T09:04:06.007Z,100662.52
2023-03-29T09:06:58.458Z,100661.98
2023-03-29T09:09:33.097Z,100663.11
2023-03-29T09:12:21.323Z,100660.31
2023-03-29T09:15:05.325Z,100658.98
2023-03-29T09:17:33.920Z,100656.86
2023-03-29T09:20:27.873Z,100655.66
2023-03-29T09:23:07.149Z,100653.17
2023-03-29T09:25:54.200Z,100650.21
2023-03-29T09:28:35.112Z,100648.66
2023-03-29T09:31:10.651Z,100647.68
2023-03-29T09:33:53.995Z,100648.64
2023-03-29T09:36:47.291Z,100647.38
2023-03-29T09:39:17.280Z,100644.21
2023-03-29T09:41:53.209Z,100640.62
2023-03-29T09:44:32.227Z,100639.67
2023-03-29T09:47:19.370Z,100641.09
2023-03-29T09:49:51.453Z,100639.80
2023-03-29T09:52:21.445Z,100633.66
2023-03-29T09:55:00.414Z,100634.24
2023-03-29T09:58:15.692Z,100632.05
2023-03-29T10:00:48.524Z,100630.32
2023-03-29T10:03:20.153Z,100625.20
2023-03-29T10:05:56.467Z,100623.21
2023-03-29T10:08:48.123Z,100624.30
2023-03-29T10:11:24.233Z,100617.13
2023-03-29T10:13:57.784Z,100616.77
2023-03-29T10:16:30.748Z,100611.90
2023-03-29T10:18:59.272Z,100609.25
2023-03-29T10:21:29.218Z,100611.59
2023-03-29T10:23:59.653Z,100602.35
2023-03-29T10:26:33.484Z,100602.96
2023-03-29T10:29:04.832Z,100597.48
2023-03-29T10:31:38.488Z,100600.78
2023-03-29T10:34:09.180Z,100598.84
2023-03-29T10:36:41.711Z,100601.71
2023-03-29T10:39:16.702Z,100596.73
2023-03-29T10:41:45.852Z,100600.59
2023-03-29T10:44:33.116Z,100601.68
2023-03-29T10:47:20.725Z,100600.52
2023-03-29T10:49:57.517Z,100594.73
2023-03-29T10:52:27.071Z,100595.25
2023-03-29T10:54:56.858Z,100587.04
2023-03-29T10:57:25.757Z,100582.86
2023-03-29T11:00:10.180Z,100576.20
2023-03-29T11:02:48.607Z,100575.88
2023-03-29T11:05:20.883Z,100574.02
2023-03-29T11:08:30.490Z,100574.12
2023-03-29T11:11:33.859Z,100570.11
2023-03-29T11:14:03.339Z,100566.88
2023-03-29T11:16:42.673Z,100567.50
2023-03-29T11:19:20.635Z,100557.47
2023-03-29T11:21:50.341Z,100555.39
2023-03-29T11:24:19.321Z,100548.39
2023-03-29T11:27:08.109Z,100543.67
2023-03-29T11:29:58.113Z,100540.85
2023-03-29T11:32:30.647Z,100539.25
2023-03-29T11:35:19.385Z,100531.98
2023-03-29T11:38:18.799Z,100533.80
2023-03-29T11:40:53.967Z,100533.27
2023-03-29T11:43:23.078Z,100524.38
2023-03-29T11:45:55.373Z,100520.53
2023-03-29T11:48:29.777Z,100517.34
2023-03-29T11:51:04.428Z,100518.66
2023-03-29T11:53:39.521Z,100515.64
2023-03-29T11:56:14.933Z,100509.07
2023-03-29T11:58:46.693Z,100508.98
2023-03-29T12:01:18.677Z,100504.92
2023-03-29T12:03:51.230Z,100503.96
2023-03-29T12:06:29.236Z,100499.84
2023-03-29T12:09:07.716Z,100499.84
2023-03-29T12:12:00.162Z,100504.48
2023-03-29T12:14:33.422Z,100496.34
2023-03-29T12:17:05.691Z,100493.76
2023-03-29T12:19:50.637Z,100491.66
2023-03-29T12:22:21.276Z,100495.89
2023-03-29T12:24:53.001Z,100489.55
2023-03-29T12:27:26.618Z,100482.71
2023-03-29T12:29:55.440Z,100477.73
2023-03-29T12:32:43.855Z,100475.65
2023-03-29T12:35:42.868Z,100474.05
2023-03-29T12:38:31.842Z,100473.13
2023-03-29T12:41:25.907Z,100474.80
2023-03-29T12:44:21.122Z,100465.88
2023-03-29T12:47:00.756Z,100468.97
2023-03-29T12:49:33.506Z,100462.46
2023-03-29T12:52:04.340Z,100463.79
2023-03-29T12:54:34.049Z,100456.61
2023-03-29T12:57:19.190Z,100447.30
2023-03-29T12:59:48.724Z,100439.62
2023-03-29T13:02:18.729Z,100443.91
2023-03-29T13:04:52.799Z,100440.89
2023-03-29T13:07:24.570Z,100444.38
2023-03-29T13:09:53.376Z,100437.11
2023-03-29T13:12:23.399Z,100438.90
2023-03-29T13:15:01.073Z,100435.95
2023-03-29T13:17:48.972Z,100438.34
2023-03-29T13:20:26.872Z,100435.13
2023-03-29T13:22:58.478Z,100431.71
2023-03-29T13:25:52.555Z,100427.26
2023-03-29T13:28:27.162Z,100425.39
2023-03-29T13:31:00.706Z,100424.83
2023-03-29T13:33:42.054Z,100426.18
2023-03-29T13:36:16.804Z,100427.54
2023-03-29T13:38:53.922Z,100431.48
2023-03-29T13:41:33.954Z,100433.06
2023-03-29T13:44:03.279Z,100434.50
2023-03-29T13:46:42.121Z,100426.72
2023-03-29T13:49:19.980Z,100426.67
2023-03-29T13:52:01.352Z,100428.10
2023-03-29T13:54:37.526Z,100423.25
2023-03-29T13:57:09.800Z,100417.81
2023-03-29T13:59:58.121Z,100415.19
2023-03-29T14:02:33.723Z,100415.27
2023-03-29T14:05:04.877Z,100414.77
2023-03-29T14:07:34.288Z,100415.46
2023-03-29T14:10:03.935Z,100411.35
2023-03-29T14:12:41.920Z,100410.84
2023-03-29T14:15:29.242Z,100408.39
2023-03-29T14:18:00.331Z,100410.16
2023-03-29T14:20:31.816Z,100407.60
2023-03-29T14:23:01.031Z,100407.48
2023-03-29T14:25:29.616Z,100406.10
2023-03-29T14:27:58.390Z,100397.59
2023-03-29T14:30:28.610Z,100394.14
2023-03-29T14:32:57.803Z,100393.67
2023-03-29T14:35:31.556Z,100388.44
2023-03-29T14:38:01.215Z,100390.90
2023-03-29T14:40:32.280Z,100389.73
2023-03-29T14:43:05.293Z,100389.64
2023-03-29T14:45:33.845Z,100388.36
2023-03-29T14:48:05.917Z,100382.33
2023-03-29T14:50:39.926Z,100386.09
2023-03-29T14:53:20.151Z,100385.75
2023-03-29T14:55:54.581Z,100382.91
2023-03-29T14:58:34.957Z,100382.34
2023-03-29T15:01:17.822Z,100378.77
2023-03-29T15:03:57.542Z,100376.27
2023-03-29T15:06:28.034Z,100369.98
2023-03-29T15:09:06.100Z,100372.98
2023-03-29T15:11:36.771Z,100366.58
2023-03-29T15:14:07.878Z,100360.70
2023-03-29T15:16:41.954Z,100358.76
2023-03-29T15:19:14.709Z,100356.91
2023-03-29T15:21:44.938Z,100356.37
2023-03-29T15:24:39.872Z,100352.64
2023-03-29T15:27:14.726Z,100348.96
2023-03-29T15:29:44.730Z,100343.31
2023-03-29T15:32:24.020Z,100341.58
2023-03-29T15:35:00.145Z,100346.15
2023-03-29T15:37:30.208Z,100338.52
2023-03-29T15:39:59.633Z,100333.52
2023-03-29T15:42:28.726Z,100331.16
2023-03-29T15:44:57.595Z,100328.33
2023-03-29T15:47:26.715Z,100326.23
2023-03-29T15:49:55.559Z,100320.48
2023-03-29T15:52:24.761Z,100316.85
2023-03-29T15:54:53.075Z,100312.73
2023-03-29T15:57:22.508Z,100309.39
2023-03-29T15:59:51.776Z,100304.64
2023-03-29T16:02:22.275Z,100305.07
2023-03-29T16:04:51.091Z,100304.15
2023-03-29T16:07:21.203Z,100306.98
2023-03-29T16:09:49.722Z,100307.02
2023-03-29T16:12:18.184Z,100302.30
2023-03-29T16:14:47.637Z,100302.83
2023-03-29T16:17:17.018Z,100298.69
2023-03-29T16:19:45.852Z,100297.97
2023-03-29T16:22:14.176Z,100298.41
2023-03-29T16:24:44.131Z,100297.13
2023-03-29T16:27:13.142Z,100296.92
2023-03-29T16:29:42.104Z,100299.47
2023-03-29T16:32:11.506Z,100292.71
2023-03-29T16:34:41.670Z,100293.44
2023-03-29T16:37:10.700Z,100291.27
2023-03-29T16:39:39.978Z,100290.27
2023-03-29T16:42:11.938Z,100288.68
2023-03-29T16:44:41.074Z,100284.88
2023-03-29T16:47:11.010Z,100278.42
2023-03-29T16:49:40.413Z,100281.90
2023-03-29T16:52:09.868Z,100273.54
2023-03-29T16:54:39.194Z,100278.34
2023-03-29T16:57:07.850Z,100275.23
2023-03-29T16:59:36.684Z,100277.16
2023-03-29T17:02:05.632Z,100279.20
2023-03-29T17:04:34.364Z,100283.59
2023-03-29T17:07:04.417Z,100279.67
2023-03-29T17:09:34.116Z,100283.14
2023-03-29T17:12:03.244Z,100275.40
2023-03-29T17:15:06.527Z,100276.17
2023-03-29T17:17:35.615Z,100272.09
2023-03-29T17:20:06.654Z,100273.53
2023-03-29T17:22:36.164Z,100273.31
2023-03-29T17:25:07.418Z,100275.36
2023-03-29T17:27:38.255Z,100276.73
2023-03-29T17:30:07.310Z,100278.02
2023-03-29T17:32:36.857Z,100278.48
2023-03-29T17:35:05.855Z,100277.82
2023-03-29T17:37:34.957Z,100280.48
2023-03-29T17:40:14.939Z,100280.30
2023-03-29T17:42:46.671Z,100279.31
2023-03-29T17:45:15.988Z,100277.77
2023-03-29T17:47:44.967Z,100276.48
2023-03-29T17:50:13.959Z,100279.76
2023-03-29T17:52:42.283Z,100273.08
2023-03-29T17:55:13.683Z,100275.39
2023-03-29T17:57:42.470Z,100275.08
2023-03-29T18:00:12.679Z,100279.20
2023-03-29T18:02:41.600Z,100278.14
2023-03-29T18:05:15.485Z,100272.77
2023-03-29T18:07:46.600Z,100273.83
2023-03-29T18:10:15.081Z,100277.42
2023-03-29T18:12:45.499Z,100277.41
2023-03-29T18:15:14.515Z,100279.05
2023-03-29T18:17:43.752Z,100281.90
2023-03-29T18:20:13.308Z,100281.25
2023-03-29T18:22:42.580Z,100282.42
2023-03-29T18:25:16.750Z,100285.38
2023-03-29T18:27:48.270Z,100282.62
2023-03-29T18:30:17.558Z,100287.75
2023-03-29T18:32:46.065Z,100282.26
2023-03-29T18:35:14.598Z,100282.19
2023-03-29T18:37:42.820Z,100281.98
2023-03-29T18:40:12.476Z,100283.23
2023-03-29T18:42:41.736Z,100279.33
2023-03-29T18:45:10.831Z,100274.02
2023-03-29T18:47:39.234Z,100273.30
2023-03-29T18:50:09.752Z,100271.95
2023-03-29T18:52:38.091Z,100271.80
2023-03-29T18:55:07.344Z,100268.17
2023-03-29T18:57:36.085Z,100269.05
2023-03-29T19:00:10.789Z,100265.95
2023-03-29T19:02:41.931Z,100265.74
2023-03-29T19:05:11.090Z,100262.37
2023-03-29T19:07:39.394Z,100264.40
2023-03-29T19:10:08.524Z,100260.01
2023-03-29T19:12:36.916Z,100260.52
2023-03-29T19:15:05.486Z,100255.52
2023-03-29T19:17:33.962Z,100257.73
2023-03-29T19:20:02.315Z,100255.54
2023-03-29T19:22:31.386Z,100248.66
2023-03-29T19:24:59.734Z,100247.48
2023-03-29T19:27:28.140Z,100242.29
2023-03-29T19:29:56.297Z,100241.05
2023-03-29T19:32:24.731Z,100240.11
2023-03-29T19:34:53.454Z,100236.09
2023-03-29T19:37:21.834Z,100230.20
2023-03-29T19:39:50.180Z,100231.70
2023-03-29T19:42:18.472Z,100231.45
2023-03-29T19:44:47.063Z,100228.79
2023-03-29T19:47:16.457Z,100227.92
2023-03-29T19:49:47.703Z,100231.34
2023-03-29T19:52:16.758Z,100230.20
2023-03-29T19:54:46.267Z,100228.77
2023-03-29T19:57:14.736Z,100230.71
2023-03-29T19:59:43.300Z,100230.83
2023-03-29T20:02:11.951Z,100227.92
2023-03-29T20:04:40.916Z,100224.72
2023-03-29T20:07:09.741Z,100220.76
2023-03-29T20:09:38.368Z,100218.96
2023-03-29T20:12:06.833Z,100215.64
2023-03-29T20:14:37.801Z,100208.13
2023-03-29T20:17:07.365Z,100206.41
2023-03-29T20:19:38.221Z,100205.15
2023-03-29T20:22:09.364Z,100202.30
2023-03-29T20:24:38.160Z,100201.21
2023-03-29T20:27:07.430Z,100201.46
2023-03-29T20:29:37.592Z,100199.80
2023-03-29T20:32:07.766Z,100199.39
2023-03-29T20:34:37.974Z,100195.86
2023-03-29T20:37:07.963Z,100193.85
2023-03-29T20:39:37.520Z,100193.67
2023-03-29T20:42:06.577Z,100190.11
2023-03-29T20:44:35.523Z,100191.05
2023-03-29T20:47:05.254Z,100190.16
2023-03-29T20:49:37.920Z,100186.42
2023-03-29T20:52:08.617Z,100182.94
2023-03-29T20:54:39.976Z,100179.05
2023-03-29T20:57:10.378Z,100175.46
2023-03-29T20:59:39.735Z,100176.05
2023-03-29T21:02:12.043Z,100172.69
2023-03-29T21:04:43.526Z,100168.50
2023-03-29T21:07:13.586Z,100163.52
2023-03-29T21:09:42.740Z,100164.75
2023-03-29T21:12:11.818Z,100164.70
2023-03-29T21:14:40.307Z,100160.88
2023-03-29T21:17:09.755Z,100160.25
2023-03-29T21:19:40.123Z,100157.54
2023-03-29T21:22:10.903Z,100154.09
2023-03-29T21:24:40.295Z,100152.54
2023-03-29T21:27:09.720Z,100146.11
2023-03-29T21:29:39.053Z,100147.45
2023-03-29T21:32:08.378Z,100146.27
2023-03-29T21:34:38.132Z,100139.79
2023-03-29T21:37:07.905Z,100138.11
2023-03-29T21:39:37.443Z,100135.95
2023-03-29T21:42:06.756Z,100133.58
2023-03-29T21:44:36.952Z,100129.39
2023-03-29T21:47:06.571Z,100124.95
2023-03-29T21:49:35.718Z,100122.10
2023-03-29T21:52:04.617Z,100122.79
2023-03-29T21:54:34.802Z,100122.73
2023-03-29T21:57:03.930Z,100120.31
2023-03-29T21:59:33.610Z,100121.13
2023-03-29T22:02:02.673Z,100123.11
2023-03-29T22:04:37.078Z,100128.70
2023-03-29T22:07:08.833Z,100124.30
2023-03-29T22:09:38.485Z,100117.70
2023-03-29T22:12:07.498Z,100117.06
2023-03-29T22:14:36.619Z,100115.57
2023-03-29T22:17:08.929Z,100115.27
2023-03-29T22:19:42.590Z,100117.34
2023-03-29T22:22:14.484Z,100111.86
2023-03-29T22:24:43.631Z,100112.38
2023-03-29T22:27:12.616Z,100102.73
2023-03-29T22:29:41.659Z,100099.50
2023-03-29T22:32:10.904Z,100099.85
2023-03-29T22:34:40.383Z,100100.80
2023-03-29T22:37:09.378Z,100101.51
2023-03-29T22:39:38.625Z,100097.83
2023-03-29T22:42:07.394Z,100097.23
2023-03-29T22:44:36.714Z,100092.58
2023-03-29T22:47:05.841Z,100089.88
2023-03-29T22:49:34.171Z,100089.33
2023-03-29T22:52:03.263Z,100086.04
2023-03-29T22:54:32.268Z,100080.66
2023-03-29T22:57:01.319Z,100080.88
2023-03-29T22:59:30.417Z,100083.48
2023-03-29T23:01:59.558Z,100082.27
2023-03-29T23:04:28.411Z,100079.08
2023-03-29T23:06:57.285Z,100079.63
2023-03-29T23:09:26.377Z,100075.86
2023-03-29T23:11:57.009Z,100075.99
2023-03-29T23:14:26.144Z,100068.41
2023-03-29T23:16:55.215Z,100067.48
2023-03-29T23:19:24.638Z,100067.92
2023-03-29T23:21:53.786Z,100067.23
2023-03-29T23:24:22.977Z,100068.36
2023-03-29T23:26:51.884Z,100066.64
2023-03-29T23:29:21.041Z,100064.69
2023-03-29T23:31:51.179Z,100062.78
2023-03-29T23:34:20.834Z,100061.31
2023-03-29T23:36:50.033Z,100059.62
2023-03-29T23:39:19.093Z,100055.33
2023-03-29T23:41:48.130Z,100052.70
2023-03-29T23:44:17.244Z,100048.81
2023-03-29T23:46:46.171Z,100051.71
2023-03-29T23:49:16.920Z,100050.42
2023-03-29T23:51:48.480Z,100053.21
2023-03-29T23:54:17.633Z,100046.17
2023-03-29T23:56:47.227Z,100043.02
2023-03-29T23:59:16.971Z,100040.02
